createdAt,value
2019-03-22T00:00:32.935Z,10.93
2019-03-22T00:02:36.704Z,15.63
2019-03-22T00:04:40.408Z,8.13
2019-03-22T00:06:45.049Z,10.60
2019-03-22T00:08:48.784Z,7.37
2019-03-22T00:10:52.501Z,10.10
2019-03-22T00:12:56.665Z,9.60
2019-03-22T00:15:00.452Z,10.03
2019-03-22T00:17:04.356Z,10.43
2019-03-22T00:19:08.106Z,7.90
2019-03-22T00:21:11.879Z,7.20
2019-03-22T00:23:15.619Z,7.73
2019-03-22T00:25:19.353Z,12.17
2019-03-22T00:27:23.291Z,13.37
2019-03-22T00:29:27.525Z,6.93
2019-03-22T00:31:31.174Z,8.73
2019-03-22T00:33:34.915Z,11.70
2019-03-22T00:35:38.685Z,7.43
2019-03-22T00:37:42.462Z,14.27
2019-03-22T00:39:46.251Z,10.10
2019-03-22T00:41:50.083Z,10.03
2019-03-22T00:43:53.857Z,7.80
2019-03-22T00:45:57.723Z,7.03
2019-03-22T00:48:01.489Z,9.90
2019-03-22T00:50:09.692Z,9.60
2019-03-22T00:52:13.463Z,11.57
2019-03-22T00:54:17.244Z,8.50
2019-03-22T00:56:21.039Z,8.83
2019-03-22T00:58:24.851Z,11.83
2019-03-22T01:00:28.567Z,13.70
2019-03-22T01:02:32.252Z,10.23
2019-03-22T01:04:36.120Z,12.73
2019-03-22T01:06:39.858Z,10.80
2019-03-22T01:08:43.695Z,10.90
2019-03-22T01:10:47.533Z,8.93
2019-03-22T01:12:51.304Z,9.07
2019-03-22T01:14:55.160Z,10.60
2019-03-22T01:16:58.970Z,16.37
2019-03-22T01:19:02.727Z,12.80
2019-03-22T01:21:06.531Z,16.10
2019-03-22T01:23:10.381Z,14.20
2019-03-22T01:25:14.066Z,16.53
2019-03-22T01:27:18.841Z,14.60
2019-03-22T01:29:22.606Z,19.80
2019-03-22T01:31:26.405Z,9.17
2019-03-22T01:33:30.249Z,10.20
2019-03-22T01:35:34.143Z,13.73
2019-03-22T01:37:37.824Z,8.30
2019-03-22T01:39:41.673Z,11.47
2019-03-22T01:41:45.518Z,10.37
2019-03-22T01:43:49.315Z,17.63
2019-03-22T01:45:53.134Z,7.20
2019-03-22T01:47:56.681Z,12.70
2019-03-22T01:50:00.416Z,11.60
2019-03-22T01:52:05.196Z,10.07
2019-03-22T01:54:09.047Z,10.53
2019-03-22T01:56:12.750Z,9.10
2019-03-22T01:58:16.497Z,8.50
2019-03-22T02:00:20.307Z,8.70
2019-03-22T02:02:24.132Z,12.30
2019-03-22T02:04:27.979Z,10.53
2019-03-22T02:06:31.759Z,14.80
2019-03-22T02:08:35.494Z,11.60
2019-03-22T02:10:39.373Z,8.67
2019-03-22T02:12:43.181Z,11.37
2019-03-22T02:14:47.021Z,13.03
2019-03-22T02:16:50.774Z,10.87
2019-03-22T02:18:54.503Z,10.57
2019-03-22T02:20:58.221Z,11.73
2019-03-22T02:23:02.490Z,16.23
2019-03-22T02:25:07.069Z,14.57
2019-03-22T02:27:10.825Z,25.70
2019-03-22T02:29:14.636Z,18.33
2019-03-22T02:31:18.518Z,16.33
2019-03-22T02:33:22.138Z,17.13
2019-03-22T02:35:28.807Z,21.53
2019-03-22T02:37:31.592Z,19.43
2019-03-22T02:39:35.488Z,17.67
2019-03-22T02:41:39.401Z,17.13
2019-03-22T02:43:43.211Z,15.47
2019-03-22T02:45:47.091Z,17.73
2019-03-22T02:47:50.759Z,12.37
2019-03-22T02:49:54.553Z,12.90
2019-03-22T02:51:58.451Z,16.77
2019-03-22T02:54:02.251Z,13.43
2019-03-22T02:56:06.196Z,12.23
2019-03-22T02:58:20.675Z,16.80
2019-03-22T03:00:17.561Z,28.77
2019-03-22T03:02:21.470Z,25.47
2019-03-22T03:04:25.379Z,33.00
2019-03-22T03:06:29.332Z,37.63
2019-03-22T03:08:36.036Z,46.37
2019-03-22T03:10:40.031Z,36.80
2019-03-22T03:12:44.256Z,43.10
2019-03-22T03:14:48.167Z,28.20
2019-03-22T03:16:52.194Z,28.20
2019-03-22T03:18:56.125Z,20.90
2019-03-22T03:21:00.037Z,23.10
2019-03-22T03:23:03.926Z,19.47
2019-03-22T03:25:08.638Z,15.13
2019-03-22T03:27:12.449Z,17.40
2019-03-22T03:29:16.315Z,11.03
2019-03-22T03:31:20.288Z,10.80
2019-03-22T03:33:24.164Z,11.37
2019-03-22T03:35:28.125Z,9.47
2019-03-22T03:37:31.843Z,14.27
2019-03-22T03:39:35.635Z,10.60
2019-03-22T03:41:39.577Z,10.73
2019-03-22T03:43:44.029Z,10.33
2019-03-22T03:45:48.086Z,9.17
2019-03-22T03:47:51.806Z,10.57
2019-03-22T03:49:55.878Z,10.93
2019-03-22T03:51:59.876Z,11.63
2019-03-22T03:54:03.903Z,11.33
2019-03-22T03:56:08.028Z,10.90
2019-03-22T03:58:12.426Z,11.10
2019-03-22T04:00:16.867Z,10.30
2019-03-22T04:02:21.053Z,15.13
2019-03-22T04:04:25.077Z,11.97
2019-03-22T04:06:33.717Z,13.43
2019-03-22T04:08:34.865Z,11.57
2019-03-22T04:10:38.886Z,12.33
2019-03-22T04:12:43.083Z,9.20
2019-03-22T04:14:49.772Z,11.17
2019-03-22T04:16:53.815Z,6.77
2019-03-22T04:18:57.546Z,11.20
2019-03-22T04:21:01.264Z,11.50
2019-03-22T04:23:05.108Z,11.40
2019-03-22T04:25:09.233Z,11.50
2019-03-22T04:27:13.228Z,16.00
2019-03-22T04:29:17.140Z,14.77
2019-03-22T04:31:21.040Z,9.10
2019-03-22T04:33:24.806Z,9.13
2019-03-22T04:35:28.651Z,11.23
2019-03-22T04:37:33.938Z,9.67
2019-03-22T04:39:37.699Z,9.80
2019-03-22T04:41:41.609Z,9.27
2019-03-22T04:43:45.357Z,9.53
2019-03-22T04:45:50.657Z,12.23
2019-03-22T04:48:06.190Z,9.20
2019-03-22T04:50:10.022Z,7.70
2019-03-22T04:52:14.382Z,7.10
2019-03-22T04:54:19.902Z,10.87
2019-03-22T04:56:25.274Z,9.90
2019-03-22T04:58:29.949Z,9.37
2019-03-22T05:00:35.008Z,7.90
2019-03-22T05:02:41.363Z,9.30
2019-03-22T05:04:48.250Z,11.23
2019-03-22T05:06:53.267Z,10.70
2019-03-22T05:08:59.901Z,8.90
2019-03-22T05:11:05.572Z,14.57
2019-03-22T05:13:12.156Z,12.00
2019-03-22T05:15:18.849Z,12.33
2019-03-22T05:17:23.070Z,13.23
2019-03-22T05:19:29.368Z,17.10
2019-03-22T05:21:34.688Z,11.40
2019-03-22T05:23:39.650Z,14.53
2019-03-22T05:25:45.013Z,7.80
2019-03-22T05:27:50.275Z,9.13
2019-03-22T05:29:56.606Z,10.00
2019-03-22T05:32:05.223Z,8.90
2019-03-22T05:34:10.582Z,10.50
2019-03-22T05:36:14.334Z,7.10
2019-03-22T05:38:18.385Z,13.40
2019-03-22T05:40:22.274Z,10.97
2019-03-22T05:42:26.040Z,13.40
2019-03-22T05:44:29.814Z,9.27
2019-03-22T05:46:33.667Z,9.20
2019-03-22T05:48:37.583Z,8.03
2019-03-22T05:50:41.652Z,7.87
2019-03-22T05:52:45.385Z,8.47
2019-03-22T05:54:49.206Z,9.80
2019-03-22T05:56:53.030Z,15.73
2019-03-22T05:58:56.800Z,16.90
2019-03-22T06:01:00.814Z,19.03
2019-03-22T06:03:04.725Z,15.53
2019-03-22T06:05:08.544Z,11.87
2019-03-22T06:07:12.319Z,11.90
2019-03-22T06:09:16.624Z,8.43
2019-03-22T06:11:20.528Z,13.20
2019-03-22T06:13:24.332Z,9.20
2019-03-22T06:15:28.246Z,14.10
2019-03-22T06:17:32.052Z,9.57
2019-03-22T06:19:35.862Z,10.23
2019-03-22T06:21:40.901Z,12.23
2019-03-22T06:23:44.834Z,8.87
2019-03-22T06:25:49.257Z,11.60
2019-03-22T06:27:53.217Z,11.10
2019-03-22T06:29:56.904Z,12.83
2019-03-22T06:32:03.616Z,10.53
2019-03-22T06:34:07.409Z,15.00
2019-03-22T06:36:11.478Z,19.80
2019-03-22T06:38:17.608Z,19.23
2019-03-22T06:40:21.413Z,14.53
2019-03-22T06:42:25.254Z,12.13
2019-03-22T06:44:29.110Z,23.00
2019-03-22T06:46:32.999Z,16.07
2019-03-22T06:48:36.918Z,15.80
2019-03-22T06:50:40.761Z,13.83
2019-03-22T06:52:44.818Z,10.90
2019-03-22T06:54:48.674Z,15.77
2019-03-22T06:56:52.505Z,14.00
2019-03-22T06:58:56.290Z,13.07
2019-03-22T07:01:00.447Z,11.10
2019-03-22T07:03:04.516Z,18.20
2019-03-22T07:05:08.620Z,13.00
2019-03-22T07:07:12.501Z,12.30
2019-03-22T07:09:16.388Z,14.03
2019-03-22T07:11:20.101Z,13.33
2019-03-22T07:13:23.985Z,16.23
2019-03-22T07:15:27.786Z,18.17
2019-03-22T07:17:31.608Z,18.17
2019-03-22T07:19:35.511Z,12.97
2019-03-22T07:21:39.479Z,14.67
2019-03-22T07:23:43.340Z,17.07
2019-03-22T07:25:47.220Z,14.40
2019-03-22T07:27:51.236Z,18.40
2019-03-22T07:29:55.059Z,13.97
2019-03-22T07:31:58.896Z,21.13
2019-03-22T07:34:02.638Z,15.73
2019-03-22T07:36:06.537Z,17.70
2019-03-22T07:38:10.514Z,12.03
2019-03-22T07:40:14.826Z,16.07
2019-03-22T07:42:18.684Z,14.60
2019-03-22T07:44:22.497Z,16.63
2019-03-22T07:46:26.336Z,15.67
2019-03-22T07:48:30.007Z,20.90
2019-03-22T07:50:33.778Z,16.53
2019-03-22T07:52:37.592Z,17.83
2019-03-22T07:54:41.471Z,16.60
2019-03-22T07:56:45.639Z,15.10
2019-03-22T07:58:49.914Z,12.60
2019-03-22T08:00:55.232Z,13.50
2019-03-22T08:02:59.139Z,11.53
2019-03-22T08:05:03.363Z,13.27
2019-03-22T08:07:07.225Z,17.83
2019-03-22T08:09:11.086Z,12.23
2019-03-22T08:11:14.894Z,16.50
2019-03-22T08:13:18.925Z,15.80
2019-03-22T08:15:30.267Z,12.40
2019-03-22T08:17:34.105Z,20.63
2019-03-22T08:19:38.031Z,12.40
2019-03-22T08:21:42.141Z,11.93
2019-03-22T08:23:45.935Z,8.40
2019-03-22T08:25:50.057Z,9.50
2019-03-22T08:27:54.991Z,10.67
2019-03-22T08:29:59.016Z,9.60
2019-03-22T08:32:02.712Z,15.00
2019-03-22T08:34:06.363Z,12.40
2019-03-22T08:36:11.222Z,9.23
2019-03-22T08:38:17.448Z,11.37
2019-03-22T08:40:20.084Z,13.30
2019-03-22T08:42:23.629Z,10.13
2019-03-22T08:44:27.424Z,10.67
2019-03-22T08:46:31.166Z,12.10
2019-03-22T08:48:34.984Z,9.03
2019-03-22T08:50:38.693Z,10.30
2019-03-22T08:52:42.236Z,13.20
2019-03-22T08:54:45.905Z,10.00
2019-03-22T08:56:49.543Z,17.30
2019-03-22T08:58:53.209Z,12.47
2019-03-22T09:00:58.136Z,11.13
2019-03-22T09:03:02.068Z,12.30
2019-03-22T09:05:07.013Z,9.27
2019-03-22T09:07:10.717Z,10.30
2019-03-22T09:09:15.706Z,11.90
2019-03-22T09:11:19.361Z,11.23
2019-03-22T09:13:23.059Z,14.40
2019-03-22T09:15:26.733Z,10.13
2019-03-22T09:17:30.546Z,19.43
2019-03-22T09:19:34.149Z,12.97
2019-03-22T09:21:37.847Z,11.80
2019-03-22T09:23:41.748Z,12.50
2019-03-22T09:25:45.409Z,15.20
2019-03-22T09:27:49.073Z,12.93
2019-03-22T09:29:52.630Z,8.47
2019-03-22T09:31:56.209Z,7.87
2019-03-22T09:33:59.844Z,13.60
2019-03-22T09:36:03.531Z,15.33
2019-03-22T09:38:12.773Z,10.10
2019-03-22T09:40:12.468Z,9.63
2019-03-22T09:42:16.160Z,8.70
2019-03-22T09:44:19.815Z,12.83
2019-03-22T09:46:23.623Z,11.67
2019-03-22T09:48:27.236Z,12.53
2019-03-22T09:50:30.919Z,11.53
2019-03-22T09:52:34.691Z,10.53
2019-03-22T09:54:38.336Z,7.40
2019-03-22T09:56:47.266Z,10.57
2019-03-22T09:58:48.640Z,7.57
2019-03-22T10:00:52.383Z,12.87
2019-03-22T10:02:56.193Z,12.93
2019-03-22T10:04:59.869Z,8.70
2019-03-22T10:07:03.502Z,10.80
2019-03-22T10:09:07.541Z,12.50
2019-03-22T10:11:11.196Z,10.50
2019-03-22T10:13:14.916Z,12.17
2019-03-22T10:15:18.557Z,12.47
2019-03-22T10:17:22.242Z,11.00
2019-03-22T10:19:25.855Z,16.07
2019-03-22T10:21:29.405Z,25.00
2019-03-22T10:23:33.078Z,13.30
2019-03-22T10:25:36.745Z,13.73
2019-03-22T10:27:40.323Z,11.23
2019-03-22T10:29:44.001Z,12.57
2019-03-22T10:31:47.597Z,12.07
2019-03-22T10:33:51.231Z,11.60
2019-03-22T10:35:54.938Z,13.03
2019-03-22T10:38:00.841Z,11.20
2019-03-22T10:40:05.323Z,20.40
2019-03-22T10:42:08.885Z,10.07
2019-03-22T10:44:12.678Z,13.20
2019-03-22T10:46:16.604Z,11.03
2019-03-22T10:48:20.287Z,9.07
2019-03-22T10:50:24.711Z,15.07
2019-03-22T10:52:28.408Z,8.27
2019-03-22T10:54:32.312Z,12.70
2019-03-22T10:56:36.025Z,7.57
2019-03-22T10:58:39.643Z,10.50
2019-03-22T11:00:43.343Z,6.80
2019-03-22T11:02:47.452Z,9.10
2019-03-22T11:04:51.196Z,9.43
2019-03-22T11:06:54.820Z,14.47
2019-03-22T11:08:58.544Z,13.33
2019-03-22T11:11:02.156Z,7.13
2019-03-22T11:13:05.926Z,11.30
2019-03-22T11:15:12.480Z,7.53
2019-03-22T11:17:16.087Z,12.40
2019-03-22T11:19:20.279Z,10.83
2019-03-22T11:21:23.984Z,7.67
2019-03-22T11:23:27.614Z,7.37
2019-03-22T11:25:32.041Z,9.07
2019-03-22T11:27:35.650Z,6.90
2019-03-22T11:29:39.505Z,6.90
2019-03-22T11:31:43.235Z,6.97
2019-03-22T11:33:46.978Z,8.00
2019-03-22T11:35:50.672Z,7.60
2019-03-22T11:37:54.424Z,9.40
2019-03-22T11:39:58.119Z,8.10
2019-03-22T11:42:01.733Z,8.80
2019-03-22T11:44:07.263Z,6.23
2019-03-22T11:46:10.923Z,10.60
2019-03-22T11:48:14.538Z,9.23
2019-03-22T11:50:18.339Z,10.30
2019-03-22T11:52:22.019Z,15.13
2019-03-22T11:54:25.710Z,8.00
2019-03-22T11:56:29.478Z,5.90
2019-03-22T11:58:33.067Z,10.53
2019-03-22T12:00:36.724Z,8.03
2019-03-22T12:02:40.564Z,9.93
2019-03-22T12:04:44.202Z,9.00
2019-03-22T12:06:47.941Z,10.17
2019-03-22T12:08:51.616Z,9.30
2019-03-22T12:10:55.179Z,9.63
2019-03-22T12:12:58.725Z,8.83
2019-03-22T12:15:02.388Z,9.27
2019-03-22T12:17:06.055Z,9.47
2019-03-22T12:19:09.696Z,7.10
2019-03-22T12:21:13.392Z,15.13
2019-03-22T12:23:17.452Z,9.57
2019-03-22T12:25:27.375Z,7.40
2019-03-22T12:27:36.515Z,6.67
2019-03-22T12:29:36.392Z,6.27
2019-03-22T12:31:40.248Z,6.07
2019-03-22T12:33:44.297Z,6.53
2019-03-22T12:35:48.069Z,11.60
2019-03-22T12:37:51.648Z,9.43
2019-03-22T12:39:55.379Z,8.10
2019-03-22T12:41:59.745Z,8.53
2019-03-22T12:44:03.365Z,9.93
2019-03-22T12:46:07.722Z,6.97
2019-03-22T12:48:11.382Z,7.60
2019-03-22T12:50:16.127Z,9.10
2019-03-22T12:52:19.986Z,8.03
2019-03-22T12:54:23.857Z,7.77
2019-03-22T12:56:28.912Z,6.27
2019-03-22T12:58:32.890Z,4.07
2019-03-22T13:00:36.768Z,7.37
2019-03-22T13:02:42.457Z,7.77
2019-03-22T13:04:45.785Z,9.67
2019-03-22T13:06:49.645Z,4.70
2019-03-22T13:08:53.383Z,6.70
2019-03-22T13:10:58.878Z,6.83
2019-03-22T13:13:02.692Z,5.17
2019-03-22T13:15:07.690Z,7.23
2019-03-22T13:17:11.497Z,6.50
2019-03-22T13:19:15.292Z,9.03
2019-03-22T13:21:19.152Z,7.73
2019-03-22T13:23:22.824Z,19.33
2019-03-22T13:25:26.695Z,7.73
2019-03-22T13:27:30.445Z,7.00
2019-03-22T13:29:34.205Z,10.30
2019-03-22T13:31:39.575Z,5.50
2019-03-22T13:33:43.303Z,15.00
2019-03-22T13:35:47.248Z,7.53
2019-03-22T13:37:52.228Z,8.23
2019-03-22T13:39:56.083Z,9.40
2019-03-22T13:41:59.917Z,8.77
2019-03-22T13:44:03.569Z,6.97
2019-03-22T13:46:07.413Z,8.47
2019-03-22T13:48:14.150Z,10.10
2019-03-22T13:50:17.877Z,7.60
2019-03-22T13:52:21.591Z,9.83
2019-03-22T13:54:25.292Z,8.60
2019-03-22T13:56:30.101Z,7.47
2019-03-22T13:58:34.007Z,8.50
2019-03-22T14:00:37.723Z,8.90
2019-03-22T14:02:41.472Z,9.70
2019-03-22T14:04:45.173Z,7.90
2019-03-22T14:06:48.957Z,8.00
2019-03-22T14:08:54.753Z,7.20
2019-03-22T14:10:58.621Z,5.77
2019-03-22T14:13:03.187Z,9.00
2019-03-22T14:15:07.594Z,10.93
2019-03-22T14:17:11.367Z,7.60
2019-03-22T14:19:15.194Z,6.20
2019-03-22T14:21:18.957Z,9.37
2019-03-22T14:23:23.240Z,8.30
2019-03-22T14:25:27.010Z,9.77
2019-03-22T14:27:30.685Z,6.30
2019-03-22T14:29:34.425Z,7.33
2019-03-22T14:31:38.108Z,9.50
2019-03-22T14:33:41.773Z,8.47
2019-03-22T14:35:47.659Z,8.47
2019-03-22T14:37:50.925Z,9.27
2019-03-22T14:39:54.705Z,9.57
2019-03-22T14:41:58.478Z,7.10
2019-03-22T14:44:02.158Z,8.47
2019-03-22T14:46:06.049Z,6.40
2019-03-22T14:48:09.643Z,8.37
2019-03-22T14:50:13.513Z,6.73
2019-03-22T14:52:17.243Z,5.97
2019-03-22T14:54:20.892Z,8.30
2019-03-22T14:56:25.386Z,6.80
2019-03-22T14:58:30.157Z,7.30
2019-03-22T15:00:33.797Z,13.90
2019-03-22T15:02:37.480Z,11.10
2019-03-22T15:04:41.138Z,5.87
2019-03-22T15:06:45.088Z,8.40
2019-03-22T15:08:48.820Z,7.30
2019-03-22T15:10:53.453Z,10.00
2019-03-22T15:12:58.101Z,9.03
2019-03-22T15:15:05.968Z,11.30
2019-03-22T15:17:13.916Z,11.57
2019-03-22T15:19:27.946Z,7.27
2019-03-22T15:21:34.734Z,8.63
2019-03-22T15:23:46.111Z,7.30
2019-03-22T15:26:07.980Z,8.80
2019-03-22T15:28:17.553Z,8.50
2019-03-22T15:30:28.713Z,9.40
2019-03-22T15:32:52.242Z,6.43
2019-03-22T15:35:00.669Z,7.70
2019-03-22T15:37:22.292Z,9.17
2019-03-22T15:39:27.856Z,6.70
2019-03-22T15:41:31.763Z,6.80
2019-03-22T15:43:35.361Z,10.57
2019-03-22T15:45:39.040Z,8.50
2019-03-22T15:47:42.802Z,9.17
2019-03-22T15:49:46.612Z,11.40
2019-03-22T15:51:50.279Z,9.20
2019-03-22T15:53:54.158Z,8.63
2019-03-22T15:55:57.828Z,8.80
2019-03-22T15:58:01.997Z,10.67
2019-03-22T16:00:08.905Z,6.07
2019-03-22T16:02:12.742Z,5.50
2019-03-22T16:04:17.922Z,8.23
2019-03-22T16:06:21.861Z,6.70
2019-03-22T16:08:25.566Z,6.30
2019-03-22T16:10:29.296Z,8.10
2019-03-22T16:12:33.146Z,7.73
2019-03-22T16:14:36.793Z,8.30
2019-03-22T16:16:40.498Z,7.60
2019-03-22T16:18:44.250Z,10.73
2019-03-22T16:20:47.968Z,9.23
2019-03-22T16:22:52.755Z,7.40
2019-03-22T16:24:56.574Z,8.53
2019-03-22T16:27:00.399Z,8.00
2019-03-22T16:29:04.190Z,8.50
2019-03-22T16:31:07.776Z,10.17
2019-03-22T16:33:11.529Z,11.50
2019-03-22T16:35:16.726Z,11.00
2019-03-22T16:37:20.363Z,9.17
2019-03-22T16:39:24.042Z,7.87
2019-03-22T16:41:27.863Z,14.17
2019-03-22T16:43:31.640Z,10.83
2019-03-22T16:45:39.631Z,10.13
2019-03-22T16:47:43.428Z,9.50
2019-03-22T16:49:47.038Z,10.27
2019-03-22T16:51:50.612Z,8.17
2019-03-22T16:53:54.231Z,8.40
2019-03-22T16:55:57.838Z,9.80
2019-03-22T16:58:01.513Z,8.47
2019-03-22T17:00:08.202Z,12.20
2019-03-22T17:02:12.015Z,7.93
2019-03-22T17:04:15.766Z,12.17
2019-03-22T17:06:19.482Z,7.90
2019-03-22T17:08:23.175Z,7.50
2019-03-22T17:10:26.831Z,9.00
2019-03-22T17:12:32.202Z,8.10
2019-03-22T17:14:37.649Z,8.70
2019-03-22T17:16:41.454Z,11.10
2019-03-22T17:18:45.237Z,10.00
2019-03-22T17:20:48.937Z,7.60
2019-03-22T17:22:52.665Z,8.90
2019-03-22T17:24:58.263Z,8.30
2019-03-22T17:27:01.709Z,9.43
2019-03-22T17:29:05.359Z,7.43
2019-03-22T17:31:09.083Z,8.30
2019-03-22T17:33:12.932Z,9.87
2019-03-22T17:35:19.419Z,13.33
2019-03-22T17:37:23.590Z,7.83
2019-03-22T17:39:27.331Z,9.10
2019-03-22T17:41:30.983Z,9.30
2019-03-22T17:43:34.958Z,17.07
2019-03-22T17:45:39.662Z,9.83
2019-03-22T17:47:43.325Z,9.23
2019-03-22T17:49:48.519Z,9.83
2019-03-22T17:51:53.146Z,11.50
2019-03-22T17:53:56.740Z,9.57
2019-03-22T17:56:00.412Z,10.63
2019-03-22T17:58:04.272Z,11.83
2019-03-22T18:00:12.551Z,9.13
2019-03-22T18:02:18.677Z,9.17
2019-03-22T18:04:24.511Z,12.50
2019-03-22T18:06:28.312Z,6.73
2019-03-22T18:08:33.108Z,12.23
2019-03-22T18:10:36.773Z,8.10
2019-03-22T18:12:40.402Z,7.47
2019-03-22T18:14:44.096Z,12.77
2019-03-22T18:16:47.766Z,12.00
2019-03-22T18:18:51.548Z,11.50
2019-03-22T18:20:55.095Z,13.70
2019-03-22T18:22:58.763Z,10.40
2019-03-22T18:25:02.463Z,9.10
2019-03-22T18:27:06.166Z,8.57
2019-03-22T18:29:09.862Z,14.03
2019-03-22T18:31:13.542Z,10.00
2019-03-22T18:33:17.352Z,8.80
2019-03-22T18:35:21.014Z,9.90
2019-03-22T18:37:24.597Z,8.87
2019-03-22T18:39:28.223Z,9.77
2019-03-22T18:41:37.353Z,7.33
2019-03-22T18:43:41.044Z,7.43
2019-03-22T18:45:44.692Z,11.37
2019-03-22T18:47:48.263Z,13.70
2019-03-22T18:49:53.884Z,21.70
2019-03-22T18:51:57.599Z,20.97
2019-03-22T18:54:01.346Z,23.47
2019-03-22T18:56:08.238Z,15.07
2019-03-22T18:58:12.017Z,17.27
2019-03-22T19:00:17.746Z,14.63
2019-03-22T19:02:22.293Z,16.17
2019-03-22T19:04:30.150Z,14.17
2019-03-22T19:06:36.101Z,16.33
2019-03-22T19:08:41.405Z,18.80
2019-03-22T19:10:45.099Z,16.87
2019-03-22T19:12:53.625Z,19.83
2019-03-22T19:14:57.341Z,24.30
2019-03-22T19:17:02.416Z,25.73
2019-03-22T19:19:06.830Z,23.90
2019-03-22T19:21:10.616Z,22.83
2019-03-22T19:23:14.289Z,24.90
2019-03-22T19:25:18.104Z,28.27
2019-03-22T19:27:33.335Z,21.03
2019-03-22T19:32:00.999Z,17.60
2019-03-22T19:34:06.125Z,18.27
2019-03-22T19:36:09.909Z,18.07
2019-03-22T19:38:13.667Z,19.77
2019-03-22T19:40:20.691Z,21.07
2019-03-22T19:42:24.546Z,20.03
2019-03-22T19:44:30.049Z,13.80
2019-03-22T19:46:40.830Z,16.77
2019-03-22T19:48:46.144Z,15.40
2019-03-22T19:50:49.837Z,15.90
2019-03-22T19:52:54.870Z,14.00
2019-03-22T19:55:00.401Z,16.73
2019-03-22T19:57:05.550Z,14.07
2019-03-22T19:59:09.388Z,14.90
2019-03-22T20:01:20.121Z,12.50
2019-03-22T20:03:27.632Z,17.07
2019-03-22T20:05:32.936Z,11.23
2019-03-22T20:07:37.295Z,15.10
2019-03-22T20:09:42.552Z,14.13
2019-03-22T20:11:46.161Z,20.60
2019-03-22T20:13:52.606Z,28.00
2019-03-22T20:15:59.531Z,56.20
2019-03-22T20:18:04.422Z,124.87
2019-03-22T20:20:09.493Z,258.47
2019-03-22T20:22:13.742Z,254.03
2019-03-22T20:24:18.446Z,211.37
2019-03-22T20:26:23.253Z,203.13
2019-03-22T20:28:26.892Z,165.30
2019-03-22T20:30:30.660Z,151.47
2019-03-22T20:32:44.311Z,149.67
2019-03-22T20:34:50.244Z,140.10
2019-03-22T20:36:53.934Z,124.90
2019-03-22T20:38:57.663Z,111.00
2019-03-22T20:41:03.059Z,66.73
2019-03-22T20:43:06.704Z,46.37
2019-03-22T20:45:23.280Z,37.87
2019-03-22T20:47:21.647Z,34.50
2019-03-22T20:49:25.201Z,29.97
2019-03-22T20:51:42.738Z,32.40
2019-03-22T20:53:47.417Z,31.83
2019-03-22T20:55:51.046Z,33.40
2019-03-22T20:57:54.697Z,29.73
2019-03-22T20:59:58.310Z,23.30
2019-03-22T21:02:01.995Z,17.97
2019-03-22T21:04:12.836Z,17.37
2019-03-22T21:06:18.020Z,14.40
2019-03-22T21:08:21.641Z,11.50
2019-03-22T21:10:25.392Z,13.30
2019-03-22T21:12:28.964Z,22.30
2019-03-22T21:14:38.303Z,23.37
2019-03-22T21:16:42.532Z,25.87
2019-03-22T21:18:47.873Z,29.70
2019-03-22T21:20:57.663Z,25.70
2019-03-22T21:23:01.336Z,22.40
2019-03-22T21:25:06.878Z,20.97
2019-03-22T21:27:15.555Z,31.57
2019-03-22T21:29:21.036Z,24.40
2019-03-22T21:31:24.851Z,29.57
2019-03-22T21:33:28.537Z,28.03
2019-03-22T21:35:37.196Z,27.93
2019-03-22T21:37:46.401Z,32.57
2019-03-22T21:39:50.066Z,40.67
2019-03-22T21:41:58.187Z,42.90
2019-03-22T21:44:01.862Z,36.20
2019-03-22T21:46:07.536Z,30.80
2019-03-22T21:48:10.891Z,31.13
2019-03-22T21:50:14.667Z,29.20
2019-03-22T21:52:18.339Z,29.10
2019-03-22T21:54:22.094Z,31.97
2019-03-22T21:56:27.604Z,35.60
2019-03-22T21:58:30.999Z,31.13
2019-03-22T22:00:37.697Z,26.73
2019-03-22T22:02:41.345Z,29.53
2019-03-22T22:04:47.096Z,34.90
2019-03-22T22:06:50.704Z,35.10
2019-03-22T22:08:55.592Z,35.83
2019-03-22T22:11:00.157Z,34.03
2019-03-22T22:13:11.258Z,30.60
2019-03-22T22:15:15.320Z,21.67
2019-03-22T22:17:21.956Z,15.30
2019-03-22T22:19:25.661Z,14.13
2019-03-22T22:21:29.444Z,12.17
2019-03-22T22:23:33.193Z,14.07
2019-03-22T22:25:36.861Z,16.77
2019-03-22T22:27:40.591Z,10.70
2019-03-22T22:29:50.685Z,10.97
2019-03-22T22:31:54.354Z,16.67
2019-03-22T22:33:58.106Z,10.93
2019-03-22T22:36:02.156Z,13.60
2019-03-22T22:38:07.100Z,13.23
2019-03-22T22:40:12.133Z,16.97
2019-03-22T22:42:18.509Z,15.13
2019-03-22T22:44:22.366Z,13.00
2019-03-22T22:46:26.198Z,15.47
2019-03-22T22:48:30.137Z,14.00
2019-03-22T22:50:36.915Z,15.23
2019-03-22T22:52:40.632Z,11.50
2019-03-22T22:54:44.330Z,13.93
2019-03-22T22:56:47.979Z,13.03
2019-03-22T22:58:51.743Z,14.27
2019-03-22T23:00:55.480Z,9.03
2019-03-22T23:02:59.535Z,13.77
2019-03-22T23:05:03.321Z,12.33
2019-03-22T23:07:06.992Z,13.00
2019-03-22T23:09:10.706Z,14.67
2019-03-22T23:11:14.565Z,21.03
2019-03-22T23:13:18.210Z,17.90
2019-03-22T23:15:21.980Z,18.30
2019-03-22T23:17:25.638Z,16.00
2019-03-22T23:19:29.317Z,15.43
2019-03-22T23:21:33.350Z,12.40
2019-03-22T23:23:37.491Z,15.40
2019-03-22T23:25:41.282Z,10.60
2019-03-22T23:27:44.844Z,11.40
2019-03-22T23:29:48.497Z,11.97
2019-03-22T23:31:52.144Z,14.30
2019-03-22T23:33:55.736Z,18.17
2019-03-22T23:35:59.354Z,23.90
2019-03-22T23:38:03.002Z,23.03
2019-03-22T23:40:07.358Z,25.40
2019-03-22T23:42:11.079Z,22.70
2019-03-22T23:44:14.662Z,22.80
2019-03-22T23:46:18.263Z,26.43
2019-03-22T23:48:21.879Z,15.77
2019-03-22T23:50:25.658Z,16.13
2019-03-22T23:52:29.311Z,12.17
2019-03-22T23:54:33.591Z,20.50
2019-03-22T23:56:37.190Z,16.30
2019-03-22T23:58:41.635Z,22.30
